Time,TemperatureF,DewpointF,PressureIn,WindDirection,WindDirectionDegrees,WindSpeedMPH,WindSpeedGustMPH,Humidity,HourlyPrecipIn,Conditions,Clouds,dailyrainin,SoftwareType,DateUTC
2013-12-20 00:02:00,45.0,34.0,29.89,NW,310,9.0,9.0,64,0.00,,,-99.99,,2013-12-20 08:02:00,
2013-12-20 00:52:00,44.0,34.0,29.89,WNW,290,8.0,8.0,69,0.00,,,-99.99,,2013-12-20 08:52:00,
2013-12-20 01:02:00,44.0,34.0,29.89,WNW,290,8.0,8.0,69,0.00,,,-99.99,,2013-12-20 09:02:00,
2013-12-20 01:22:00,45.0,34.0,29.89,WNW,290,5.0,6.0,65,0.00,,,-99.99,,2013-12-20 09:22:00,
2013-12-20 01:33:00,45.0,34.0,29.89,WNW,290,5.0,6.0,65,0.00,,,-99.99,,2013-12-20 09:33:00,
2013-12-20 01:53:00,45.0,34.0,29.89,West,280,5.0,7.0,64,0.00,,,-99.99,,2013-12-20 09:53:00,
2013-12-20 02:03:00,45.0,34.0,29.89,West,280,5.0,7.0,64,0.00,,,-99.99,,2013-12-20 10:03:00,
2013-12-20 02:23:00,45.0,34.0,29.90,West,280,6.0,7.0,64,0.00,,,-99.99,,2013-12-20 10:23:00,
2013-12-20 02:33:00,45.0,34.0,29.90,West,280,6.0,7.0,64,0.00,,,-99.99,,2013-12-20 10:33:00,
2013-12-20 02:53:00,44.0,33.0,29.90,West,280,5.0,6.0,64,0.00,,,-99.99,,2013-12-20 10:53:00,
2013-12-20 03:02:00,44.0,33.0,29.90,West,280,5.0,6.0,64,0.00,,,-99.99,,2013-12-20 11:02:00,
2013-12-20 03:22:00,45.0,32.0,29.91,North,-999,0.0,3.0,59,0.00,,,-99.99,,2013-12-20 11:22:00,
2013-12-20 03:33:00,45.0,32.0,29.91,North,-999,0.0,3.0,59,0.00,,,-99.99,,2013-12-20 11:33:00,
2013-12-20 03:52:00,45.0,32.0,29.91,West,280,2.0,4.0,61,0.00,,,-99.99,,2013-12-20 11:52:00,
2013-12-20 04:02:00,45.0,32.0,29.91,West,280,2.0,4.0,61,0.00,,,-99.99,,2013-12-20 12:02:00,
2013-12-20 04:23:00,47.0,32.0,29.90,WNW,290,4.0,5.0,55,0.00,,,-99.99,,2013-12-20 12:23:00,
2013-12-20 04:32:00,47.0,32.0,29.90,WNW,290,4.0,5.0,55,0.00,,,-99.99,,2013-12-20 12:32:00,
2013-12-20 04:52:00,47.0,31.0,29.89,WNW,300,2.0,3.0,53,0.00,,,-99.99,,2013-12-20 12:52:00,
2013-12-20 05:01:00,47.0,31.0,29.89,WNW,300,2.0,3.0,53,0.00,,,-99.99,,2013-12-20 13:01:00,
2013-12-20 05:53:00,48.0,29.0,29.88,NW,310,2.0,2.0,48,0.00,,,-99.99,,2013-12-20 13:53:00,
2013-12-20 06:02:00,48.0,29.0,29.88,NW,310,2.0,2.0,48,0.00,,,-99.99,,2013-12-20 14:02:00,
2013-12-20 06:52:00,47.0,29.0,29.92,North,-999,0.0,0.0,49,0.00,,,-99.99,,2013-12-20 14:52:00,
2013-12-20 07:02:00,47.0,29.0,29.92,North,-999,0.0,0.0,49,0.00,,,-99.99,,2013-12-20 15:02:00,
2013-12-20 07:53:00,47.0,28.0,29.94,North,-999,0.0,0.0,48,0.00,,,-99.99,,2013-12-20 15:53:00,
2013-12-20 08:03:00,47.0,28.0,29.94,North,-999,0.0,0.0,48,0.00,,,-99.99,,2013-12-20 16:03:00,
2013-12-20 08:53:00,49.0,30.0,29.94,North,-999,0.0,0.0,48,0.00,,,-99.99,,2013-12-20 16:53:00,
2013-12-20 09:02:00,49.0,30.0,29.94,North,-999,0.0,0.0,48,0.00,,,-99.99,,2013-12-20 17:02:00,
2013-12-20 09:52:00,52.0,31.0,29.96,North,-999,0.0,0.0,45,0.00,,,-99.99,,2013-12-20 17:52:00,
2013-12-20 10:02:00,52.0,31.0,29.96,North,-999,0.0,0.0,45,0.00,,,-99.99,,2013-12-20 18:02:00,
2013-12-20 10:22:00,53.0,32.0,29.96,West,280,3.0,5.0,44,0.00,,,-99.99,,2013-12-20 18:22:00,
2013-12-20 10:32:00,53.0,32.0,29.96,West,280,3.0,5.0,44,0.00,,,-99.99,,2013-12-20 18:32:00,
2013-12-20 10:52:00,54.0,31.0,29.97,North,-999,0.0,1.0,42,0.00,,,-99.99,,2013-12-20 18:52:00,
2013-12-20 11:02:00,54.0,31.0,29.97,North,-999,0.0,1.0,42,0.00,,,-99.99,,2013-12-20 19:02:00,
2013-12-20 11:52:00,54.0,34.0,29.93,North,-999,0.0,0.0,46,0.00,,,-99.99,,2013-12-20 19:52:00,
2013-12-20 12:02:00,54.0,34.0,29.93,North,-999,0.0,0.0,46,0.00,,,-99.99,,2013-12-20 20:02:00,
2013-12-20 12:21:00,53.0,33.0,29.93,North,-999,0.0,0.0,46,0.00,,,-99.99,,2013-12-20 20:21:00,
2013-12-20 12:32:00,53.0,33.0,29.93,North,-999,0.0,0.0,46,0.00,,,-99.99,,2013-12-20 20:32:00,
2013-12-20 12:52:00,55.0,34.0,29.92,West,260,1.0,1.0,45,0.00,,,-99.99,,2013-12-20 20:52:00,
2013-12-20 13:02:00,55.0,34.0,29.92,West,260,1.0,1.0,45,0.00,,,-99.99,,2013-12-20 21:02:00,
2013-12-20 13:22:00,57.0,34.0,29.91,North,-999,0.0,0.0,41,0.00,,,-99.99,,2013-12-20 21:22:00,
2013-12-20 13:33:00,57.0,34.0,29.91,North,-999,0.0,0.0,41,0.00,,,-99.99,,2013-12-20 21:33:00,
2013-12-20 13:53:00,57.0,35.0,29.90,North,-999,0.0,0.0,43,0.00,,,-99.99,,2013-12-20 21:53:00,
2013-12-20 14:03:00,57.0,35.0,29.90,North,-999,0.0,0.0,43,0.00,,,-99.99,,2013-12-20 22:03:00,
2013-12-20 14:13:00,57.0,35.0,29.90,North,-999,0.0,0.0,43,0.00,,,-99.99,,2013-12-20 22:13:00,
2013-12-20 14:23:00,57.0,34.0,29.91,WSW,240,3.0,5.0,41,0.00,,,-99.99,,2013-12-20 22:23:00,
2013-12-20 14:53:00,58.0,33.0,29.90,SW,230,1.0,1.0,39,0.00,,,-99.99,,2013-12-20 22:53:00,
2013-12-20 15:02:00,58.0,33.0,29.90,SW,230,1.0,1.0,39,0.00,,,-99.99,,2013-12-20 23:02:00,
2013-12-20 15:22:00,58.0,33.0,29.90,North,-999,0.0,0.0,39,0.00,,,-99.99,,2013-12-20 23:22:00,
2013-12-20 15:33:00,58.0,33.0,29.90,North,-999,0.0,0.0,39,0.00,,,-99.99,,2013-12-20 23:33:00,
2013-12-20 15:53:00,58.0,34.0,29.91,North,-999,0.0,0.0,40,0.00,,,-99.99,,2013-12-20 23:53:00,
2013-12-20 16:02:00,58.0,34.0,29.91,North,-999,0.0,0.0,40,0.00,,,-99.99,,2013-12-21 00:02:00,
2013-12-20 16:22:00,55.0,33.0,29.91,SSW,210,1.0,1.0,44,0.00,,,-99.99,,2013-12-21 00:22:00,
2013-12-20 16:32:00,55.0,33.0,29.91,SSW,210,1.0,1.0,44,0.00,,,-99.99,,2013-12-21 00:32:00,
2013-12-20 16:52:00,53.0,34.0,29.91,SSW,210,4.0,4.0,49,0.00,,,-99.99,,2013-12-21 00:52:00,
2013-12-20 17:01:00,53.0,34.0,29.91,SSW,210,4.0,4.0,49,0.00,,,-99.99,,2013-12-21 01:01:00,
2013-12-20 17:22:00,51.0,34.0,29.91,North,-999,0.0,0.0,52,0.00,,,-99.99,,2013-12-21 01:22:00,
2013-12-20 17:32:00,51.0,34.0,29.91,North,-999,0.0,0.0,52,0.00,,,-99.99,,2013-12-21 01:32:00,
2013-12-20 17:52:00,51.0,34.0,29.91,SW,220,3.0,3.0,52,0.00,,,-99.99,,2013-12-21 01:52:00,
2013-12-20 18:01:00,51.0,34.0,29.91,SW,220,3.0,3.0,52,0.00,,,-99.99,,2013-12-21 02:01:00,
2013-12-20 18:21:00,51.0,33.0,29.92,WSW,250,3.0,3.0,50,0.00,,,-99.99,,2013-12-21 02:21:00,
2013-12-20 18:32:00,51.0,33.0,29.92,WSW,250,3.0,3.0,50,0.00,,,-99.99,,2013-12-21 02:32:00,
2013-12-20 18:52:00,50.0,31.0,29.93,West,260,4.0,4.0,47,0.00,,,-99.99,,2013-12-21 02:52:00,
2013-12-20 19:01:00,50.0,31.0,29.93,West,260,4.0,4.0,47,0.00,,,-99.99,,2013-12-21 03:01:00,
2013-12-20 19:21:00,51.0,30.0,29.94,West,260,2.0,2.0,45,0.00,,,-99.99,,2013-12-21 03:21:00,
2013-12-20 19:32:00,51.0,30.0,29.94,West,260,2.0,2.0,45,0.00,,,-99.99,,2013-12-21 03:32:00,
2013-12-20 19:53:00,51.0,31.0,29.94,West,260,1.0,3.0,47,0.00,,,-99.99,,2013-12-21 03:53:00,
2013-12-20 20:02:00,51.0,31.0,29.94,West,260,1.0,3.0,47,0.00,,,-99.99,,2013-12-21 04:02:00,
2013-12-20 20:22:00,50.0,28.0,29.94,North,-999,0.0,0.0,42,0.00,,,-99.99,,2013-12-21 04:22:00,
2013-12-20 20:32:00,50.0,28.0,29.94,North,-999,0.0,0.0,42,0.00,,,-99.99,,2013-12-21 04:32:00,
2013-12-20 21:22:00,50.0,28.0,29.95,WSW,240,3.0,3.0,43,0.00,,,-99.99,,2013-12-21 05:22:00,
2013-12-20 21:32:00,50.0,28.0,29.95,WSW,240,3.0,3.0,43,0.00,,,-99.99,,2013-12-21 05:32:00,
2013-12-20 21:52:00,50.0,29.0,29.95,WSW,240,5.0,5.0,44,0.00,,,-99.99,,2013-12-21 05:52:00,
2013-12-20 22:02:00,50.0,29.0,29.95,WSW,240,5.0,5.0,44,0.00,,,-99.99,,2013-12-21 06:02:00,
2013-12-20 23:53:00,50.0,27.0,29.97,North,-999,0.0,0.0,41,0.00,,,-99.99,,2013-12-21 07:53:00,